Time;durP1;ratioP1;P1;durP2;ratioP2;P2;SDS_P1;SDS_P2;PMS_P1;PMS_P2;Temp;Humidity;BMP_temperature;BMP_pressure;BME280_temperature;BME280_humidity;BME280_pressure;Samples;Min_cycle;Max_cycle;Signal;HPM_P1;HPM_P2
2022/04/24 00:01:22;;;;;;;5.90;5.40;;;17.70;58.20;;;;;;5025111;28;20489;-47
2022/04/24 00:03:52;;;;;;;6.17;5.67;;;17.70;58.30;;;;;;5014928;28;20480;-47
2022/04/24 00:06:23;;;;;;;6.77;6.07;;;17.70;58.30;;;;;;5021775;28;20448;-46
2022/04/24 00:08:52;;;;;;;5.33;4.83;;;17.70;58.30;;;;;;5023617;28;20468;-47
2022/04/24 00:11:20;;;;;;;5.80;5.40;;;17.70;58.20;;;;;;5006166;28;20433;-46
2022/04/24 00:13:48;;;;;;;5.93;5.43;;;17.70;58.30;;;;;;5024009;28;20522;-47
2022/04/24 00:16:16;;;;;;;6.37;5.77;;;17.70;58.40;;;;;;5023873;28;20967;-46
2022/04/24 00:18:45;;;;;;;5.67;5.17;;;17.70;58.20;;;;;;5021767;28;20847;-47
2022/04/24 00:21:13;;;;;;;5.27;4.87;;;17.70;58.30;;;;;;5025420;28;20444;-48
2022/04/24 00:23:41;;;;;;;5.20;4.70;;;17.70;58.40;;;;;;5024264;28;20466;-48
2022/04/24 00:26:10;;;;;;;5.97;5.47;;;17.70;58.60;;;;;;5017835;28;20555;-46
2022/04/24 00:28:38;;;;;;;5.40;5.00;;;17.70;59.60;;;;;;5023928;28;21018;-46
2022/04/24 00:31:06;;;;;;;5.43;5.03;;;17.70;58.70;;;;;;5024028;28;20523;-45
2022/04/24 00:33:35;;;;;;;5.20;4.80;;;17.70;58.60;;;;;;5021662;28;20479;-47
2022/04/24 00:36:03;;;;;;;5.53;5.07;;;17.70;58.50;;;;;;5022997;28;20456;-49
2022/04/24 00:38:33;;;;;;;5.27;4.87;;;17.70;58.80;;;;;;5023399;28;20504;-49
2022/04/24 00:41:01;;;;;;;4.67;4.30;;;17.70;58.60;;;;;;5023918;28;20452;-46
2022/04/24 00:43:31;;;;;;;5.17;4.77;;;17.70;58.80;;;;;;5024283;28;20499;-48
2022/04/24 00:46:41;;;;;;;4.93;4.43;;;17.70;58.80;;;;;;5023063;28;20823;-47
2022/04/24 00:49:10;;;;;;;5.23;4.83;;;17.70;58.60;;;;;;5008878;28;20468;-45
2022/04/24 00:51:39;;;;;;;5.40;4.97;;;17.70;58.60;;;;;;5024948;28;20412;-47
2022/04/24 00:54:08;;;;;;;5.40;5.00;;;17.70;58.90;;;;;;5021376;28;21039;-47
2022/04/24 00:56:37;;;;;;;5.00;4.50;;;17.70;58.90;;;;;;5024805;28;20925;-48
2022/04/24 00:59:08;;;;;;;5.83;5.30;;;17.70;58.90;;;;;;5023347;28;20482;-48
2022/04/24 01:01:37;;;;;;;5.43;4.90;;;17.70;59.10;;;;;;5023743;28;20429;-48
2022/04/24 01:04:08;;;;;;;4.80;4.40;;;17.60;59.10;;;;;;5020297;28;20475;-47
2022/04/24 01:06:39;;;;;;;5.23;4.73;;;17.60;59.10;;;;;;5024256;28;20439;-48
2022/04/24 01:09:13;;;;;;;4.77;4.37;;;17.70;59.20;;;;;;5021501;28;20468;-46
2022/04/24 01:11:42;;;;;;;6.27;5.77;;;17.60;59.10;;;;;;5004509;28;20464;-47
2022/04/24 01:14:12;;;;;;;5.03;4.63;;;17.60;59.30;;;;;;5021830;28;20875;-47
2022/04/24 01:16:40;;;;;;;4.80;4.40;;;17.60;59.50;;;;;;5021185;28;20538;-48
2022/04/24 01:19:08;;;;;;;4.43;4.03;;;17.60;59.80;;;;;;5023468;28;20468;-48
2022/04/24 01:21:39;;;;;;;5.17;4.77;;;17.60;59.90;;;;;;5023882;28;20425;-47
2022/04/24 01:24:08;;;;;;;4.37;4.00;;;17.60;60.10;;;;;;5020806;28;20515;-46
2022/04/24 01:26:36;;;;;;;4.60;4.20;;;17.60;60.30;;;;;;5022630;28;20519;-46
2022/04/24 01:29:05;;;;;;;5.17;4.67;;;17.60;60.10;;;;;;5023206;28;20463;-47
2022/04/24 01:31:33;;;;;;;4.70;4.40;;;17.60;59.90;;;;;;5022819;28;20436;-47
2022/04/24 01:34:02;;;;;;;4.63;4.23;;;17.60;59.70;;;;;;5013347;28;20468;-46
2022/04/24 01:36:30;;;;;;;5.30;4.80;;;17.60;59.60;;;;;;5023749;28;20664;-46
2022/04/24 01:38:59;;;;;;;4.60;4.20;;;17.60;59.50;;;;;;5021632;28;20490;-46
2022/04/24 01:41:28;;;;;;;4.77;4.33;;;17.60;59.60;;;;;;5017657;28;20464;-49
2022/04/24 01:43:56;;;;;;;4.37;4.07;;;17.60;59.60;;;;;;5020933;28;20470;-46
2022/04/24 01:46:24;;;;;;;4.87;4.37;;;17.60;60.90;;;;;;5022533;28;20474;-47
2022/04/24 01:48:52;;;;;;;4.43;4.03;;;17.60;60.80;;;;;;5015038;28;21027;-47
2022/04/24 01:51:21;;;;;;;4.50;4.10;;;17.60;59.80;;;;;;5016011;28;20444;-47
2022/04/24 01:53:49;;;;;;;5.00;4.60;;;17.60;60.10;;;;;;5022707;28;20835;-47
2022/04/24 01:56:18;;;;;;;4.93;4.50;;;17.60;60.00;;;;;;5017015;28;20480;-47
2022/04/24 01:58:46;;;;;;;5.07;4.57;;;17.60;59.70;;;;;;5022733;28;20464;-47
2022/04/24 02:01:14;;;;;;;5.00;4.60;;;17.60;60.10;;;;;;5025147;28;20431;-48
2022/04/24 02:03:42;;;;;;;4.80;4.40;;;17.60;60.00;;;;;;5017046;28;20472;-46
2022/04/24 02:06:12;;;;;;;5.00;4.60;;;17.60;60.10;;;;;;5025500;28;20987;-47
2022/04/24 02:08:40;;;;;;;5.20;4.33;;;17.60;60.20;;;;;;5029227;28;20452;-47
2022/04/24 02:11:09;;;;;;;4.60;4.23;;;17.60;60.20;;;;;;5028755;28;20476;-46
2022/04/24 02:13:38;;;;;;;5.00;4.00;;;17.60;60.00;;;;;;5029419;28;20543;-47
2022/04/24 02:16:06;;;;;;;4.80;4.50;;;17.50;60.10;;;;;;5028219;28;20547;-46
2022/04/24 02:18:34;;;;;;;4.33;4.03;;;17.50;60.00;;;;;;5023212;28;20490;-46
2022/04/24 02:21:02;;;;;;;5.10;4.70;;;17.60;60.00;;;;;;5030273;28;20506;-46
2022/04/24 02:23:32;;;;;;;4.73;4.43;;;17.50;60.20;;;;;;5028512;28;20876;-45
2022/04/24 02:26:00;;;;;;;4.50;4.20;;;17.50;60.10;;;;;;5016793;28;21041;-48
2022/04/24 02:28:29;;;;;;;4.60;4.30;;;17.50;60.20;;;;;;5011347;28;20495;-46
2022/04/24 02:30:59;;;;;;;4.00;3.70;;;17.50;60.20;;;;;;5029053;28;20447;-45
2022/04/24 02:33:27;;;;;;;5.60;4.07;;;17.50;59.90;;;;;;5025466;28;20543;-47
2022/04/24 02:35:55;;;;;;;4.33;4.00;;;17.50;60.00;;;;;;5031351;28;20464;-47
2022/04/24 02:38:23;;;;;;;4.23;3.93;;;17.50;60.10;;;;;;5033127;28;20459;-49
2022/04/24 02:40:51;;;;;;;4.87;4.43;;;17.50;59.80;;;;;;5013905;28;20449;-48
2022/04/24 02:43:19;;;;;;;5.07;4.67;;;17.50;60.10;;;;;;5030184;28;20494;-46
2022/04/24 02:45:47;;;;;;;4.40;4.00;;;17.50;59.90;;;;;;5031369;28;20994;-46
2022/04/24 02:48:17;;;;;;;4.37;3.97;;;17.50;60.00;;;;;;5028756;28;20896;-46
2022/04/24 02:50:45;;;;;;;5.10;3.53;;;17.50;60.10;;;;;;5022393;28;20475;-47
2022/04/24 02:53:14;;;;;;;4.70;4.30;;;17.50;60.10;;;;;;5032925;28;20463;-47
2022/04/24 02:55:42;;;;;;;4.67;4.27;;;17.50;60.10;;;;;;5025919;28;20495;-47
2022/04/24 02:58:10;;;;;;;4.20;3.90;;;17.40;60.00;;;;;;5032387;28;20479;-48
2022/04/24 03:00:43;;;;;;;4.50;4.10;;;17.40;60.00;;;;;;5032748;28;20535;-47
2022/04/24 03:03:12;;;;;;;4.23;3.83;;;17.40;60.10;;;;;;5021149;28;20523;-48
2022/04/24 03:05:41;;;;;;;4.23;3.93;;;17.40;60.20;;;;;;5025480;28;20460;-46
2022/04/24 03:08:15;;;;;;;4.00;3.70;;;17.40;60.20;;;;;;5027996;28;21385;-48
2022/04/24 03:10:43;;;;;;;4.07;3.73;;;17.40;60.20;;;;;;5006681;28;20851;-45
2022/04/24 03:13:12;;;;;;;3.97;3.67;;;17.40;60.20;;;;;;5009460;28;21198;-44
2022/04/24 03:15:40;;;;;;;3.90;3.60;;;17.40;60.30;;;;;;5025599;28;20539;-46
2022/04/24 03:18:08;;;;;;;4.00;3.70;;;17.40;60.10;;;;;;5026263;28;20474;-48
2022/04/24 03:20:36;;;;;;;4.40;4.10;;;17.40;60.40;;;;;;5020357;28;20435;-47
2022/04/24 03:23:05;;;;;;;4.80;4.40;;;17.40;60.30;;;;;;5026003;28;20471;-46
2022/04/24 03:25:34;;;;;;;4.50;4.10;;;17.40;60.40;;;;;;5022364;28;20582;-48
2022/04/24 03:28:02;;;;;;;4.40;4.10;;;17.40;60.30;;;;;;5026611;28;21118;-44
2022/04/24 03:30:30;;;;;;;4.33;4.03;;;17.40;60.20;;;;;;5026012;28;20447;-48
2022/04/24 03:32:58;;;;;;;4.30;4.00;;;17.40;60.20;;;;;;5024935;28;20460;-45
2022/04/24 03:35:26;;;;;;;4.73;4.10;;;17.40;60.40;;;;;;5014829;28;20987;-48
2022/04/24 03:37:54;;;;;;;3.83;3.53;;;17.40;60.70;;;;;;5026066;28;20482;-46
2022/04/24 03:40:24;;;;;;;3.97;3.60;;;17.40;61.10;;;;;;5014580;28;20540;-47
2022/04/24 03:42:52;;;;;;;4.50;4.10;;;17.40;61.20;;;;;;5025227;28;20490;-48
2022/04/24 03:45:20;;;;;;;3.70;3.40;;;17.40;61.30;;;;;;5024319;28;20488;-47
2022/04/24 03:47:48;;;;;;;4.33;3.93;;;17.40;61.20;;;;;;5015962;28;20460;-48
2022/04/24 03:50:16;;;;;;;3.60;3.27;;;17.40;61.30;;;;;;5026145;28;20424;-48
2022/04/24 03:52:44;;;;;;;4.07;3.67;;;17.40;61.40;;;;;;5015912;28;20506;-47
2022/04/24 03:55:12;;;;;;;3.97;3.67;;;17.40;61.40;;;;;;5013214;28;20914;-49
2022/04/24 03:57:42;;;;;;;3.70;3.40;;;17.40;61.30;;;;;;5022690;28;20813;-45
2022/04/24 04:00:12;;;;;;;4.00;3.70;;;17.30;61.20;;;;;;5039845;28;20971;-48
2022/04/24 04:02:44;;;;;;;3.60;3.30;;;17.30;61.20;;;;;;5025017;28;20613;-46
2022/04/24 04:05:12;;;;;;;4.27;3.87;;;17.40;61.40;;;;;;5018335;28;20483;-48
2022/04/24 04:07:41;;;;;;;4.77;4.03;;;17.30;61.20;;;;;;5025721;28;21062;-47
2022/04/24 04:10:10;;;;;;;4.13;3.73;;;17.30;61.20;;;;;;5016070;28;20437;-46
2022/04/24 04:12:38;;;;;;;4.10;3.80;;;17.40;61.30;;;;;;5012353;28;20479;-47
2022/04/24 04:15:09;;;;;;;4.03;3.73;;;17.30;61.20;;;;;;5024484;28;20816;-48
2022/04/24 04:17:37;;;;;;;3.57;3.30;;;17.30;61.30;;;;;;5024257;28;20459;-47
2022/04/24 04:20:11;;;;;;;3.40;3.20;;;17.30;61.10;;;;;;5025880;28;20475;-47
2022/04/24 04:22:48;;;;;;;3.67;3.40;;;17.30;62.50;;;;;;5025960;28;21174;-47
2022/04/24 04:25:17;;;;;;;4.50;4.10;;;17.30;61.30;;;;;;5022175;28;20456;-48
2022/04/24 04:27:45;;;;;;;3.90;3.60;;;17.30;61.30;;;;;;5024669;28;20468;-47
2022/04/24 04:30:14;;;;;;;3.77;3.50;;;17.30;61.20;;;;;;5024359;28;20432;-47
2022/04/24 04:32:43;;;;;;;3.50;3.20;;;17.30;61.20;;;;;;5016663;28;20469;-48
2022/04/24 04:35:11;;;;;;;4.37;4.07;;;17.30;61.20;;;;;;5018476;28;20521;-48
2022/04/24 04:37:40;;;;;;;4.10;3.80;;;17.30;61.20;;;;;;5024044;28;20499;-47
2022/04/24 04:40:11;;;;;;;3.63;3.33;;;17.30;61.30;;;;;;5015994;28;20441;-48
2022/04/24 04:42:40;;;;;;;3.97;3.67;;;17.30;61.20;;;;;;5009963;28;20535;-47
2022/04/24 04:45:09;;;;;;;4.30;3.90;;;17.30;61.20;;;;;;5023721;28;20463;-48
2022/04/24 04:47:38;;;;;;;4.10;3.70;;;17.30;61.40;;;;;;5022750;28;20997;-48
2022/04/24 04:50:07;;;;;;;3.83;3.53;;;17.20;61.10;;;;;;5009794;28;20440;-47
2022/04/24 04:52:35;;;;;;;4.23;3.30;;;17.20;61.10;;;;;;5025476;28;20472;-48
2022/04/24 04:55:05;;;;;;;3.30;3.10;;;17.20;61.10;;;;;;5018113;28;20522;-48
2022/04/24 04:57:33;;;;;;;3.50;3.20;;;17.20;61.20;;;;;;5023593;28;20996;-46
2022/04/24 05:00:01;;;;;;;4.37;4.07;;;17.20;61.10;;;;;;5024600;28;20531;-46
2022/04/24 05:02:31;;;;;;;4.67;4.20;;;17.20;61.10;;;;;;5023022;28;20967;-46
2022/04/24 05:05:01;;;;;;;3.93;3.73;;;17.20;61.20;;;;;;5016382;28;20463;-46
2022/04/24 05:07:29;;;;;;;4.37;3.60;;;17.20;61.10;;;;;;5023954;28;20443;-49
2022/04/24 05:09:57;;;;;;;5.23;3.90;;;17.20;61.10;;;;;;5022053;28;20458;-47
2022/04/24 05:12:27;;;;;;;4.13;3.73;;;17.20;61.10;;;;;;5024606;28;20882;-48
2022/04/24 05:15:01;;;;;;;3.50;3.20;;;17.20;61.10;;;;;;5023300;28;20480;-47
2022/04/24 05:17:29;;;;;;;4.20;3.90;;;17.20;61.10;;;;;;5023321;28;20515;-47
2022/04/24 05:19:57;;;;;;;3.87;3.57;;;17.20;61.10;;;;;;5013399;28;20440;-47
2022/04/24 05:22:27;;;;;;;3.50;3.30;;;17.20;61.10;;;;;;5024041;28;20440;-45
2022/04/24 05:24:55;;;;;;;3.33;2.80;;;17.20;61.10;;;;;;5014293;28;20987;-44
2022/04/24 05:27:23;;;;;;;3.93;3.53;;;17.20;61.10;;;;;;5022738;28;20951;-44
2022/04/24 05:29:51;;;;;;;3.60;3.30;;;17.20;61.20;;;;;;5010641;28;20425;-46
2022/04/24 05:32:19;;;;;;;3.50;3.30;;;17.20;61.20;;;;;;5003883;28;20937;-46
2022/04/24 05:34:48;;;;;;;3.53;3.30;;;17.10;61.00;;;;;;5015151;28;20971;-46
2022/04/24 05:37:16;;;;;;;3.93;3.63;;;17.20;61.20;;;;;;5022411;28;20486;-47
2022/04/24 05:39:46;;;;;;;4.20;3.90;;;17.10;61.10;;;;;;5016175;28;20545;-48
2022/04/24 05:42:14;;;;;;;3.30;3.10;;;17.10;61.00;;;;;;5023926;28;20927;-47
2022/04/24 05:44:42;;;;;;;3.50;3.20;;;17.10;61.00;;;;;;5022303;28;20486;-46
2022/04/24 05:47:11;;;;;;;3.63;3.33;;;17.10;61.10;;;;;;5023047;28;20443;-46
2022/04/24 05:49:39;;;;;;;3.70;3.40;;;17.10;61.00;;;;;;5009922;28;20469;-49
2022/04/24 05:52:07;;;;;;;3.50;3.20;;;17.10;61.00;;;;;;5004757;28;20421;-45
2022/04/24 05:54:35;;;;;;;3.70;3.40;;;17.10;61.00;;;;;;5002500;28;20476;-46
2022/04/24 05:57:06;;;;;;;3.60;3.30;;;17.10;61.00;;;;;;5019356;28;20482;-48
2022/04/24 05:59:35;;;;;;;4.37;4.00;;;17.10;61.00;;;;;;5003365;28;20483;-48
2022/04/24 06:02:03;;;;;;;3.63;3.33;;;17.10;61.00;;;;;;5016872;28;20595;-48
2022/04/24 06:04:31;;;;;;;3.70;3.40;;;17.10;61.00;;;;;;5010972;28;20886;-48
2022/04/24 06:06:59;;;;;;;3.23;3.03;;;17.10;61.10;;;;;;5023482;28;20898;-48
2022/04/24 06:09:27;;;;;;;3.07;2.87;;;17.10;61.10;;;;;;5019132;28;20856;-47
2022/04/24 06:11:58;;;;;;;3.17;2.97;;;17.10;61.10;;;;;;5012971;28;20523;-45
2022/04/24 06:14:28;;;;;;;2.97;2.77;;;17.10;61.20;;;;;;5021068;28;20844;-45
2022/04/24 06:16:57;;;;;;;3.20;3.00;;;17.10;61.10;;;;;;5039625;28;20423;-46
2022/04/24 06:19:25;;;;;;;3.40;3.20;;;17.10;61.00;;;;;;5010587;28;20476;-47
2022/04/24 06:21:53;;;;;;;3.43;3.23;;;17.10;61.10;;;;;;5002996;28;20491;-45
2022/04/24 06:24:21;;;;;;;3.60;3.30;;;17.10;61.10;;;;;;5013593;28;20884;-48
2022/04/24 06:26:49;;;;;;;4.10;3.70;;;17.10;61.10;;;;;;5022465;28;20842;-49
2022/04/24 06:29:17;;;;;;;3.90;3.60;;;17.10;61.10;;;;;;5021222;28;20570;-48
2022/04/24 06:31:47;;;;;;;4.60;4.20;;;17.10;61.00;;;;;;5023314;28;20424;-48
2022/04/24 06:34:15;;;;;;;3.83;3.50;;;17.10;61.00;;;;;;5018585;28;20514;-47
2022/04/24 06:36:43;;;;;;;2.90;2.70;;;17.00;61.00;;;;;;5013530;28;20417;-46
2022/04/24 06:39:12;;;;;;;3.53;3.23;;;17.00;61.00;;;;;;5021411;28;20482;-47
2022/04/24 06:41:40;;;;;;;4.17;3.80;;;17.10;61.00;;;;;;5022100;28;20448;-48
2022/04/24 06:44:24;;;;;;;3.30;3.10;;;17.10;61.10;;;;;;5021254;28;21116;-48
2022/04/24 06:46:53;;;;;;;3.77;3.47;;;17.00;61.00;;;;;;5023048;28;20424;-48
2022/04/24 06:49:21;;;;;;;4.27;3.97;;;17.00;61.00;;;;;;5022097;28;20498;-45
2022/04/24 06:51:50;;;;;;;3.57;3.27;;;17.00;61.00;;;;;;5023529;28;20428;-48
2022/04/24 06:54:18;;;;;;;3.00;2.80;;;17.00;61.00;;;;;;5017660;28;20506;-47
2022/04/24 06:56:46;;;;;;;4.13;3.83;;;17.00;61.00;;;;;;5021795;28;20432;-49
2022/04/24 06:59:14;;;;;;;3.73;3.43;;;17.00;61.00;;;;;;5022210;28;20673;-48
2022/04/24 07:01:42;;;;;;;3.93;3.70;;;17.00;61.00;;;;;;5022760;28;20535;-48
2022/04/24 07:04:12;;;;;;;3.13;2.93;;;17.00;61.00;;;;;;5019725;28;20851;-48
2022/04/24 07:06:40;;;;;;;4.93;4.53;;;17.00;61.00;;;;;;5023394;28;20432;-49
2022/04/24 07:09:08;;;;;;;3.93;3.63;;;17.00;61.00;;;;;;5019920;28;20479;-48
2022/04/24 07:11:36;;;;;;;4.37;4.07;;;17.00;61.00;;;;;;5006020;28;20447;-49
2022/04/24 07:14:04;;;;;;;3.40;3.10;;;17.00;61.00;;;;;;5020994;28;20460;-48
2022/04/24 07:16:34;;;;;;;3.73;3.43;;;17.00;61.00;;;;;;5023662;28;20443;-49
2022/04/24 07:19:02;;;;;;;3.97;3.57;;;17.00;61.00;;;;;;5019724;28;20480;-48
2022/04/24 07:21:32;;;;;;;4.43;4.03;;;17.00;61.00;;;;;;5027122;28;20431;-49
2022/04/24 07:24:01;;;;;;;4.30;3.90;;;17.00;61.00;;;;;;5024422;28;20471;-49
2022/04/24 07:26:30;;;;;;;4.60;4.20;;;17.00;61.00;;;;;;5007929;28;20464;-46
2022/04/24 07:28:59;;;;;;;3.87;3.10;;;17.00;61.00;;;;;;5017230;28;20544;-44
2022/04/24 07:31:28;;;;;;;3.70;3.40;;;17.00;61.00;;;;;;5026926;28;20772;-47
2022/04/24 07:33:56;;;;;;;3.77;3.47;;;17.00;61.00;;;;;;5016425;28;20468;-48
2022/04/24 07:36:25;;;;;;;3.93;3.63;;;17.00;61.00;;;;;;5025791;28;20448;-46
2022/04/24 07:38:54;;;;;;;3.57;3.27;;;17.00;61.00;;;;;;5024680;28;20955;-47
2022/04/24 07:41:22;;;;;;;4.27;3.97;;;17.00;61.00;;;;;;5023647;28;20471;-46
2022/04/24 07:43:50;;;;;;;3.97;3.67;;;17.00;61.00;;;;;;5020046;28;20487;-46
2022/04/24 07:46:18;;;;;;;3.93;3.63;;;17.00;61.00;;;;;;5023686;28;20460;-47
2022/04/24 07:48:47;;;;;;;3.90;3.60;;;17.00;61.00;;;;;;5024665;28;20456;-46
2022/04/24 07:51:15;;;;;;;3.67;3.37;;;17.00;61.00;;;;;;5042882;28;20773;-47
2022/04/24 07:53:44;;;;;;;4.47;4.10;;;17.00;61.00;;;;;;5025526;28;20983;-47
2022/04/24 07:56:14;;;;;;;3.77;3.47;;;17.00;61.00;;;;;;5020816;28;20464;-46
2022/04/24 07:58:44;;;;;;;4.00;3.70;;;17.00;61.00;;;;;;5025384;28;20984;-47
2022/04/24 08:01:16;;;;;;;3.77;3.47;;;17.00;59.90;;;;;;5026683;28;20438;-49
2022/04/24 08:03:45;;;;;;;4.53;4.13;;;16.90;60.90;;;;;;5023402;28;20521;-48
2022/04/24 08:06:15;;;;;;;5.23;4.83;;;17.00;61.00;;;;;;5005658;28;20456;-46
2022/04/24 08:08:43;;;;;;;3.97;3.67;;;16.90;60.80;;;;;;5013521;28;21100;-47
2022/04/24 08:11:13;;;;;;;4.47;4.07;;;16.90;60.80;;;;;;5008094;28;20455;-46
2022/04/24 08:13:41;;;;;;;4.30;4.00;;;17.00;60.70;;;;;;5020164;28;20492;-47
2022/04/24 08:16:10;;;;;;;4.10;3.80;;;16.90;60.30;;;;;;5024220;28;20963;-47
2022/04/24 08:18:38;;;;;;;5.13;4.73;;;16.90;60.80;;;;;;5025242;28;20562;-49
2022/04/24 08:21:07;;;;;;;3.80;3.50;;;17.00;60.60;;;;;;5022798;28;20476;-47
2022/04/24 08:23:35;;;;;;;4.30;3.97;;;16.90;60.70;;;;;;5024158;28;20563;-47
2022/04/24 08:26:03;;;;;;;4.57;4.17;;;16.90;60.80;;;;;;5010219;28;20480;-47
2022/04/24 08:28:32;;;;;;;4.00;3.67;;;16.90;60.70;;;;;;5024560;28;20529;-47
2022/04/24 08:31:01;;;;;;;3.70;3.40;;;17.00;61.00;;;;;;5024014;28;20950;-48
2022/04/24 08:33:29;;;;;;;4.93;4.43;;;16.90;60.90;;;;;;5020689;28;20471;-48
2022/04/24 08:35:58;;;;;;;4.00;3.70;;;16.90;60.10;;;;;;5023578;28;20482;-47
2022/04/24 08:38:26;;;;;;;5.13;4.43;;;16.90;60.70;;;;;;5001834;28;20476;-47
2022/04/24 08:40:59;;;;;;;4.50;4.10;;;16.90;61.00;;;;;;5019999;28;20566;-47
2022/04/24 08:43:27;;;;;;;4.93;4.53;;;16.90;60.90;;;;;;5017871;28;20880;-46
2022/04/24 08:45:57;;;;;;;4.27;3.97;;;16.90;60.50;;;;;;5009150;28;20559;-46
2022/04/24 08:48:26;;;;;;;4.07;3.77;;;16.90;60.90;;;;;;5022018;28;20987;-47
2022/04/24 08:50:58;;;;;;;4.50;4.10;;;16.90;60.90;;;;;;5009220;28;20507;-46
2022/04/24 08:53:30;;;;;;;5.10;4.70;;;16.90;61.00;;;;;;5024240;28;21069;-48
2022/04/24 08:55:58;;;;;;;4.37;4.00;;;16.90;59.60;;;;;;5017380;28;20543;-46
2022/04/24 08:58:26;;;;;;;4.23;3.93;;;16.90;60.50;;;;;;5023944;28;20464;-46
2022/04/24 09:00:56;;;;;;;4.20;3.90;;;16.90;60.80;;;;;;5024772;28;20468;-46
2022/04/24 09:03:26;;;;;;;4.20;3.80;;;16.90;62.10;;;;;;5016620;28;20484;-47
2022/04/24 09:05:54;;;;;;;4.00;3.70;;;16.90;60.90;;;;;;5023806;28;20943;-50
2022/04/24 09:08:25;;;;;;;4.40;4.00;;;16.90;60.90;;;;;;5023596;28;20470;-47
2022/04/24 09:11:13;;;;;;;4.20;3.90;;;16.90;60.90;;;;;;5006178;28;20437;-47
2022/04/24 09:16:26;;;;;;;3.80;3.50;;;16.90;60.90;;;;;;5021356;28;20491;-48
2022/04/24 09:18:56;;;;;;;3.60;3.40;;;16.90;60.90;;;;;;5038892;28;20483;-49
2022/04/24 09:21:26;;;;;;;3.67;3.47;;;16.90;61.00;;;;;;5011759;28;20987;-47
2022/04/24 09:23:59;;;;;;;3.60;3.30;;;16.90;60.90;;;;;;5023365;28;20456;-48
2022/04/24 09:26:27;;;;;;;7.30;4.20;;;16.90;61.00;;;;;;5004445;28;20506;-47
2022/04/24 09:29:12;;;;;;;4.30;4.00;;;16.90;60.90;;;;;;5002789;28;20471;-48
2022/04/24 09:31:44;;;;;;;5.27;4.87;;;16.90;60.90;;;;;;5019197;28;20839;-47
2022/04/24 09:34:14;;;;;;;4.37;3.97;;;16.90;60.90;;;;;;5003981;28;20522;-48
2022/04/24 09:36:43;;;;;;;4.20;3.80;;;16.90;60.90;;;;;;5023036;28;20966;-47
2022/04/24 09:39:11;;;;;;;4.40;4.00;;;16.90;60.90;;;;;;5021866;28;20554;-47
2022/04/24 09:41:39;;;;;;;4.23;3.90;;;16.90;60.90;;;;;;5021393;28;20472;-46
2022/04/24 09:44:15;;;;;;;4.23;3.93;;;16.90;60.90;;;;;;5022356;28;20478;-48
2022/04/24 09:46:43;;;;;;;5.33;4.83;;;16.90;60.90;;;;;;5021020;28;20938;-47
2022/04/24 09:49:12;;;;;;;4.90;4.50;;;16.90;59.80;;;;;;5021529;28;21048;-46
2022/04/24 09:51:43;;;;;;;4.50;4.20;;;16.90;60.30;;;;;;5023342;28;20511;-49
2022/04/24 09:54:12;;;;;;;4.40;4.07;;;16.90;60.90;;;;;;5019109;28;20529;-49
2022/04/24 09:56:41;;;;;;;4.40;4.10;;;16.90;60.90;;;;;;5003232;28;20852;-47
2022/04/24 09:59:11;;;;;;;4.13;3.80;;;16.90;60.90;;;;;;5015652;28;20974;-48
2022/04/24 10:01:40;;;;;;;4.27;3.73;;;16.90;60.90;;;;;;5023588;28;20456;-46
2022/04/24 10:04:09;;;;;;;5.33;4.37;;;16.90;60.90;;;;;;5018330;28;21005;-46
2022/04/24 10:06:40;;;;;;;6.40;4.70;;;16.90;61.00;;;;;;5023702;28;20428;-48
2022/04/24 10:09:13;;;;;;;4.80;4.40;;;16.90;60.90;;;;;;5021478;28;20464;-48
2022/04/24 10:11:41;;;;;;;4.67;4.37;;;16.90;60.90;;;;;;5022681;28;20459;-46
2022/04/24 10:14:13;;;;;;;4.57;4.20;;;16.90;60.90;;;;;;5021608;28;20553;-48
2022/04/24 10:17:10;;;;;;;5.83;5.33;;;16.90;60.90;;;;;;5022512;28;20443;-47
2022/04/24 10:19:49;;;;;;;4.30;3.90;;;16.90;61.00;;;;;;5016583;28;20522;-46
2022/04/24 10:22:31;;;;;;;5.30;4.80;;;16.90;60.90;;;;;;5022498;28;21177;-48
2022/04/24 10:25:02;;;;;;;7.20;6.50;;;16.90;60.80;;;;;;5017398;28;20755;-48
2022/04/24 10:27:40;;;;;;;7.17;6.47;;;16.90;57.00;;;;;;5023793;28;20420;-47
2022/04/24 10:30:13;;;;;;;6.03;5.20;;;16.90;57.50;;;;;;5021615;28;20961;-48
2022/04/24 10:32:44;;;;;;;6.20;5.70;;;16.80;58.40;;;;;;5022318;28;20542;-47
2022/04/24 10:35:17;;;;;;;6.67;6.07;;;16.90;58.40;;;;;;5012619;28;20529;-48
2022/04/24 10:37:47;;;;;;;6.13;5.30;;;16.90;58.50;;;;;;5023401;28;20804;-48
2022/04/24 10:40:21;;;;;;;5.57;5.17;;;16.90;58.60;;;;;;5016734;28;20432;-46
2022/04/24 10:42:50;;;;;;;5.20;4.80;;;16.90;58.60;;;;;;5022722;28;20456;-48
2022/04/24 10:45:20;;;;;;;6.30;5.80;;;16.90;58.60;;;;;;5022597;28;20463;-48
2022/04/24 10:47:58;;;;;;;5.70;5.20;;;16.90;58.80;;;;;;5019341;28;20548;-47
2022/04/24 10:50:26;;;;;;;5.50;5.00;;;16.90;59.10;;;;;;5021389;28;20973;-48
2022/04/24 10:52:56;;;;;;;5.27;4.87;;;16.90;59.20;;;;;;5022339;28;20467;-46
2022/04/24 10:55:29;;;;;;;4.97;4.57;;;16.90;59.10;;;;;;5017825;28;20521;-47
2022/04/24 10:58:00;;;;;;;5.60;5.20;;;16.90;59.40;;;;;;5026268;28;21072;-47
2022/04/24 11:00:32;;;;;;;5.00;4.60;;;16.90;59.30;;;;;;5026541;28;20459;-46
2022/04/24 11:03:11;;;;;;;4.50;4.20;;;16.90;59.40;;;;;;5023440;28;20994;-46
2022/04/24 11:05:42;;;;;;;5.17;4.73;;;16.90;59.60;;;;;;5025122;28;20835;-45
2022/04/24 11:08:17;;;;;;;4.90;4.50;;;16.90;59.50;;;;;;5025605;28;20487;-46
2022/04/24 11:10:49;;;;;;;4.87;4.47;;;16.90;59.60;;;;;;5013088;28;20448;-47
2022/04/24 11:13:19;;;;;;;5.53;5.03;;;16.90;59.60;;;;;;5008218;28;20468;-46
2022/04/24 11:15:50;;;;;;;5.53;5.10;;;16.90;59.70;;;;;;5025466;28;20467;-46
2022/04/24 11:18:24;;;;;;;5.03;4.63;;;16.90;59.40;;;;;;5024086;28;20839;-46
2022/04/24 11:20:58;;;;;;;5.63;5.13;;;16.90;59.70;;;;;;5026366;28;20467;-46
2022/04/24 11:23:28;;;;;;;5.20;4.80;;;16.90;59.80;;;;;;5026955;28;20574;-47
2022/04/24 11:25:59;;;;;;;5.47;4.97;;;16.90;59.80;;;;;;5025084;28;20533;-47
2022/04/24 11:28:38;;;;;;;4.53;4.23;;;16.90;59.90;;;;;;5025836;28;20460;-47
2022/04/24 11:31:14;;;;;;;5.27;4.83;;;16.90;59.80;;;;;;5025514;28;20945;-46
2022/04/24 11:34:02;;;;;;;4.90;4.50;;;17.00;60.00;;;;;;5009124;28;20503;-46
2022/04/24 11:36:32;;;;;;;5.30;4.80;;;16.90;60.10;;;;;;5026584;28;20513;-48
2022/04/24 11:39:01;;;;;;;4.83;4.43;;;17.00;59.90;;;;;;5024963;28;20475;-48
2022/04/24 11:41:32;;;;;;;4.50;4.20;;;16.90;59.80;;;;;;5014996;28;20459;-46
2022/04/24 11:44:02;;;;;;;5.63;5.17;;;17.00;60.20;;;;;;5009685;28;20554;-48
2022/04/24 11:52:08;;;;;;;4.77;4.30;;;17.00;60.20;;;;;;5025551;28;20440;-47
2022/04/24 11:54:40;;;;;;;4.70;4.07;;;17.00;60.30;;;;;;5019522;28;20976;-47
2022/04/24 11:57:11;;;;;;;5.27;4.87;;;17.00;60.30;;;;;;5006785;28;20527;-47
2022/04/24 11:59:50;;;;;;;4.40;4.10;;;17.00;60.50;;;;;;5011645;28;20983;-47
2022/04/24 12:02:19;;;;;;;4.53;4.23;;;17.00;60.40;;;;;;5025344;28;20811;-46
2022/04/24 12:04:51;;;;;;;5.13;4.73;;;17.00;60.30;;;;;;5010901;28;20456;-47
2022/04/24 12:07:21;;;;;;;4.60;4.27;;;17.00;60.30;;;;;;5025544;28;20448;-48
2022/04/24 12:09:59;;;;;;;4.73;4.40;;;17.00;60.40;;;;;;5024647;28;20852;-48
2022/04/24 12:12:30;;;;;;;4.83;4.43;;;17.00;60.60;;;;;;5023716;28;20551;-44
2022/04/24 12:14:58;;;;;;;5.20;4.70;;;17.00;60.70;;;;;;5023060;28;20874;-46
2022/04/24 12:17:27;;;;;;;5.27;4.77;;;17.00;60.50;;;;;;5024454;28;20444;-48
2022/04/24 12:19:57;;;;;;;5.30;4.80;;;17.00;60.20;;;;;;5025319;28;20444;-47
2022/04/24 12:22:30;;;;;;;5.37;4.87;;;17.00;60.40;;;;;;5026040;28;20462;-46
2022/04/24 12:25:08;;;;;;;4.40;4.10;;;17.00;60.60;;;;;;5018744;28;20467;-48
2022/04/24 12:27:40;;;;;;;5.10;4.70;;;17.00;60.60;;;;;;5024602;28;20471;-48
2022/04/24 12:30:15;;;;;;;5.60;5.20;;;17.00;60.20;;;;;;5025392;28;20524;-48
2022/04/24 12:32:44;;;;;;;5.17;4.77;;;17.00;60.30;;;;;;5024061;28;20990;-45
2022/04/24 12:35:26;;;;;;;4.83;4.43;;;17.00;60.30;;;;;;5010749;28;20496;-48
2022/04/24 12:37:56;;;;;;;4.73;4.37;;;17.00;60.50;;;;;;5015127;28;20525;-45
2022/04/24 12:40:25;;;;;;;5.20;4.80;;;17.00;61.00;;;;;;5021920;28;20442;-47
2022/04/24 12:42:56;;;;;;;4.03;3.73;;;17.00;60.90;;;;;;5023328;28;20856;-46
2022/04/24 12:45:26;;;;;;;5.57;5.07;;;17.00;60.50;;;;;;5024171;28;20455;-48
2022/04/24 12:47:55;;;;;;;4.77;4.47;;;17.10;60.40;;;;;;5023435;28;20476;-47
2022/04/24 12:50:24;;;;;;;5.13;4.63;;;17.00;60.20;;;;;;5010191;28;20524;-48
2022/04/24 12:52:52;;;;;;;5.47;5.03;;;17.00;60.30;;;;;;5014833;28;20479;-47
2022/04/24 12:55:21;;;;;;;4.90;4.60;;;17.00;60.50;;;;;;5011799;28;20473;-49
2022/04/24 12:57:54;;;;;;;4.27;3.97;;;17.00;60.60;;;;;;5015947;28;20460;-47
2022/04/24 13:00:24;;;;;;;4.97;4.57;;;17.00;60.60;;;;;;5026052;28;20413;-46
2022/04/24 13:02:52;;;;;;;4.83;4.37;;;17.00;60.50;;;;;;5022785;28;20510;-47
2022/04/24 13:05:21;;;;;;;4.67;4.23;;;17.00;60.50;;;;;;5011031;28;20476;-49
2022/04/24 13:07:49;;;;;;;5.03;4.67;;;17.10;60.70;;;;;;5024182;28;20478;-48
2022/04/24 13:10:18;;;;;;;5.00;4.60;;;17.00;60.40;;;;;;5021992;28;20436;-45